sensor_id;sensor_type;location;lat;lon;timestamp;pressure;altitude;pressure_sealevel;temperature;humidity
69971;BME280;57301;50.328;8.542;2023-07-20T00:00:02;98276.97;;;16.30;67.95
69971;BME280;57301;50.328;8.542;2023-07-20T00:02:28;98276.47;;;16.20;68.46
69971;BME280;57301;50.328;8.542;2023-07-20T00:04:55;98273.25;;;16.03;69.53
69971;BME280;57301;50.328;8.542;2023-07-20T00:07:21;98277.41;;;16.06;69.09
69971;BME280;57301;50.328;8.542;2023-07-20T00:09:48;98278.81;;;16.02;69.63
69971;BME280;57301;50.328;8.542;2023-07-20T00:12:14;98270.69;;;15.95;69.95
69971;BME280;57301;50.328;8.542;2023-07-20T00:14:41;98267.41;;;16.00;69.66
69971;BME280;57301;50.328;8.542;2023-07-20T00:17:07;98273.19;;;15.97;69.44
69971;BME280;57301;50.328;8.542;2023-07-20T00:19:34;98266.91;;;15.90;70.02
69971;BME280;57301;50.328;8.542;2023-07-20T00:22:01;98272.13;;;15.91;70.25
69971;BME280;57301;50.328;8.542;2023-07-20T00:24:28;98272.28;;;15.90;70.70
69971;BME280;57301;50.328;8.542;2023-07-20T00:26:54;98271.66;;;15.88;70.93
69971;BME280;57301;50.328;8.542;2023-07-20T00:29:21;98262.19;;;15.92;70.14
69971;BME280;57301;50.328;8.542;2023-07-20T00:31:47;98275.50;;;16.00;70.22
69971;BME280;57301;50.328;8.542;2023-07-20T00:34:17;98269.06;;;16.01;70.60
69971;BME280;57301;50.328;8.542;2023-07-20T00:36:43;98274.34;;;16.09;70.90
69971;BME280;57301;50.328;8.542;2023-07-20T00:39:10;98277.84;;;16.09;70.67
69971;BME280;57301;50.328;8.542;2023-07-20T00:41:36;98271.00;;;16.07;70.79
69971;BME280;57301;50.328;8.542;2023-07-20T00:44:03;98270.31;;;15.98;70.45
69971;BME280;57301;50.328;8.542;2023-07-20T00:46:29;98272.75;;;15.93;71.16
69971;BME280;57301;50.328;8.542;2023-07-20T00:48:56;98272.88;;;15.85;70.92
69971;BME280;57301;50.328;8.542;2023-07-20T00:51:23;98265.38;;;15.80;71.57
69971;BME280;57301;50.328;8.542;2023-07-20T00:53:52;98277.03;;;15.66;71.98
69971;BME280;57301;50.328;8.542;2023-07-20T00:56:18;98273.53;;;15.66;72.12
69971;BME280;57301;50.328;8.542;2023-07-20T00:58:46;98278.16;;;15.57;72.78
69971;BME280;57301;50.328;8.542;2023-07-20T01:01:13;98275.38;;;15.65;72.85
69971;BME280;57301;50.328;8.542;2023-07-20T01:03:40;98274.59;;;15.71;72.29
69971;BME280;57301;50.328;8.542;2023-07-20T01:08:39;98276.13;;;15.59;72.35
69971;BME280;57301;50.328;8.542;2023-07-20T01:11:33;98276.03;;;15.52;73.11
69971;BME280;57301;50.328;8.542;2023-07-20T01:14:02;98275.38;;;15.50;73.06
69971;BME280;57301;50.328;8.542;2023-07-20T01:16:29;98280.56;;;15.52;73.19
69971;BME280;57301;50.328;8.542;2023-07-20T01:18:56;98274.56;;;15.50;73.49
69971;BME280;57301;50.328;8.542;2023-07-20T01:21:44;98283.63;;;15.64;73.36
69971;BME280;57301;50.328;8.542;2023-07-20T01:32:22;98277.41;;;15.63;73.33
69971;BME280;57301;50.328;8.542;2023-07-20T01:34:52;98281.97;;;15.63;73.26
69971;BME280;57301;50.328;8.542;2023-07-20T01:37:20;98280.75;;;15.65;73.29
69971;BME280;57301;50.328;8.542;2023-07-20T01:39:52;98270.53;;;15.61;73.29
69971;BME280;57301;50.328;8.542;2023-07-20T01:42:22;98278.81;;;15.59;73.47
69971;BME280;57301;50.328;8.542;2023-07-20T01:44:53;98275.25;;;15.58;73.44
69971;BME280;57301;50.328;8.542;2023-07-20T01:47:19;98276.41;;;15.49;73.46
69971;BME280;57301;50.328;8.542;2023-07-20T01:49:46;98274.69;;;15.42;74.02
69971;BME280;57301;50.328;8.542;2023-07-20T01:52:12;98284.09;;;15.52;74.41
69971;BME280;57301;50.328;8.542;2023-07-20T01:54:39;98280.84;;;15.57;74.10
69971;BME280;57301;50.328;8.542;2023-07-20T01:57:05;98290.94;;;15.55;74.24
69971;BME280;57301;50.328;8.542;2023-07-20T01:59:32;98291.78;;;15.55;73.72
69971;BME280;57301;50.328;8.542;2023-07-20T02:01:58;98291.31;;;15.52;74.53
69971;BME280;57301;50.328;8.542;2023-07-20T02:04:25;98295.78;;;15.45;74.78
69971;BME280;57301;50.328;8.542;2023-07-20T02:06:54;98299.16;;;15.47;74.52
69971;BME280;57301;50.328;8.542;2023-07-20T02:09:20;98303.56;;;15.54;75.02
69971;BME280;57301;50.328;8.542;2023-07-20T02:11:47;98295.19;;;15.64;74.44
69971;BME280;57301;50.328;8.542;2023-07-20T02:14:14;98291.88;;;15.62;75.02
69971;BME280;57301;50.328;8.542;2023-07-20T02:16:43;98293.81;;;15.68;74.82
69971;BME280;57301;50.328;8.542;2023-07-20T02:19:09;98289.81;;;15.64;74.17
69971;BME280;57301;50.328;8.542;2023-07-20T02:21:37;98295.28;;;15.71;74.56
69971;BME280;57301;50.328;8.542;2023-07-20T02:24:04;98295.72;;;15.74;74.47
69971;BME280;57301;50.328;8.542;2023-07-20T02:26:30;98299.13;;;15.83;74.11
69971;BME280;57301;50.328;8.542;2023-07-20T02:28:57;98292.00;;;15.75;74.41
69971;BME280;57301;50.328;8.542;2023-07-20T02:31:23;98299.25;;;15.75;74.44
69971;BME280;57301;50.328;8.542;2023-07-20T02:33:50;98289.84;;;15.85;74.17
69971;BME280;57301;50.328;8.542;2023-07-20T02:36:16;98296.13;;;15.93;73.81
69971;BME280;57301;50.328;8.542;2023-07-20T02:38:43;98296.63;;;16.03;73.83
69971;BME280;57301;50.328;8.542;2023-07-20T02:41:09;98291.00;;;15.98;74.17
69971;BME280;57301;50.328;8.542;2023-07-20T02:43:36;98292.25;;;16.02;73.68
69971;BME280;57301;50.328;8.542;2023-07-20T02:46:02;98283.19;;;16.03;73.77
69971;BME280;57301;50.328;8.542;2023-07-20T02:48:29;98287.78;;;16.09;74.23
69971;BME280;57301;50.328;8.542;2023-07-20T02:50:56;98292.34;;;16.08;73.90
69971;BME280;57301;50.328;8.542;2023-07-20T02:53:22;98297.38;;;16.18;73.72
69971;BME280;57301;50.328;8.542;2023-07-20T02:55:48;98300.63;;;16.13;73.73
69971;BME280;57301;50.328;8.542;2023-07-20T02:58:15;98289.75;;;16.22;73.79
69971;BME280;57301;50.328;8.542;2023-07-20T03:00:42;98295.31;;;16.20;73.78
69971;BME280;57301;50.328;8.542;2023-07-20T03:03:09;98293.53;;;16.27;73.55
69971;BME280;57301;50.328;8.542;2023-07-20T03:05:36;98292.25;;;16.23;73.92
69971;BME280;57301;50.328;8.542;2023-07-20T03:08:05;98284.28;;;16.36;74.62
69971;BME280;57301;50.328;8.542;2023-07-20T03:10:32;98295.91;;;16.44;74.19
69971;BME280;57301;50.328;8.542;2023-07-20T03:12:59;98288.56;;;16.31;74.59
69971;BME280;57301;50.328;8.542;2023-07-20T03:15:25;98292.91;;;16.32;74.84
69971;BME280;57301;50.328;8.542;2023-07-20T03:17:52;98294.41;;;16.34;74.68
69971;BME280;57301;50.328;8.542;2023-07-20T03:20:18;98288.78;;;16.29;74.92
69971;BME280;57301;50.328;8.542;2023-07-20T03:22:45;98294.09;;;16.23;75.45
69971;BME280;57301;50.328;8.542;2023-07-20T03:25:11;98281.84;;;16.20;75.32
69971;BME280;57301;50.328;8.542;2023-07-20T03:27:38;98291.06;;;16.32;74.62
69971;BME280;57301;50.328;8.542;2023-07-20T03:30:05;98294.84;;;16.10;75.24
69971;BME280;57301;50.328;8.542;2023-07-20T03:32:33;98288.22;;;16.12;74.65
69971;BME280;57301;50.328;8.542;2023-07-20T03:35:00;98291.72;;;16.13;74.94
69971;BME280;57301;50.328;8.542;2023-07-20T03:37:26;98285.56;;;16.19;74.42
69971;BME280;57301;50.328;8.542;2023-07-20T03:39:53;98295.56;;;16.25;74.50
69971;BME280;57301;50.328;8.542;2023-07-20T03:42:19;98290.69;;;16.14;74.25
69971;BME280;57301;50.328;8.542;2023-07-20T03:44:45;98285.72;;;16.11;74.46
69971;BME280;57301;50.328;8.542;2023-07-20T03:47:12;98287.00;;;16.15;74.31
69971;BME280;57301;50.328;8.542;2023-07-20T03:49:38;98282.66;;;15.93;75.06
69971;BME280;57301;50.328;8.542;2023-07-20T03:52:05;98292.25;;;16.02;74.80
69971;BME280;57301;50.328;8.542;2023-07-20T03:54:32;98295.66;;;16.10;74.33
69971;BME280;57301;50.328;8.542;2023-07-20T03:56:58;98296.63;;;16.03;74.53
69971;BME280;57301;50.328;8.542;2023-07-20T03:59:25;98299.25;;;15.75;75.40
69971;BME280;57301;50.328;8.542;2023-07-20T04:01:52;98310.06;;;15.81;75.38
69971;BME280;57301;50.328;8.542;2023-07-20T04:04:18;98310.59;;;15.92;75.13
69971;BME280;57301;50.328;8.542;2023-07-20T04:06:45;98307.84;;;15.85;75.39
69971;BME280;57301;50.328;8.542;2023-07-20T04:09:12;98311.88;;;15.74;75.30
69971;BME280;57301;50.328;8.542;2023-07-20T04:11:39;98304.19;;;15.56;76.23
69971;BME280;57301;50.328;8.542;2023-07-20T04:14:06;98306.31;;;15.61;76.46
69971;BME280;57301;50.328;8.542;2023-07-20T04:16:33;98304.28;;;15.63;76.25
69971;BME280;57301;50.328;8.542;2023-07-20T04:19:00;98307.09;;;15.40;77.18
69971;BME280;57301;50.328;8.542;2023-07-20T04:21:27;98299.16;;;15.32;77.40
69971;BME280;57301;50.328;8.542;2023-07-20T04:23:54;98301.03;;;15.31;77.33
69971;BME280;57301;50.328;8.542;2023-07-20T04:26:20;98301.03;;;15.31;77.17
69971;BME280;57301;50.328;8.542;2023-07-20T04:28:47;98304.19;;;15.35;77.60
69971;BME280;57301;50.328;8.542;2023-07-20T04:31:15;98306.31;;;15.25;77.71
69971;BME280;57301;50.328;8.542;2023-07-20T04:33:42;98312.16;;;15.28;78.64
69971;BME280;57301;50.328;8.542;2023-07-20T04:36:09;98306.78;;;15.28;78.15
69971;BME280;57301;50.328;8.542;2023-07-20T04:38:35;98315.75;;;15.21;78.03
69971;BME280;57301;50.328;8.542;2023-07-20T04:41:02;98309.78;;;15.04;78.51
69971;BME280;57301;50.328;8.542;2023-07-20T04:43:29;98309.84;;;14.96;79.18
69971;BME280;57301;50.328;8.542;2023-07-20T04:45:56;98307.44;;;15.01;79.22
69971;BME280;57301;50.328;8.542;2023-07-20T04:48:22;98310.13;;;15.01;79.70
69971;BME280;57301;50.328;8.542;2023-07-20T04:50:49;98307.28;;;14.88;80.31
69971;BME280;57301;50.328;8.542;2023-07-20T04:53:15;98313.84;;;15.00;79.80
69971;BME280;57301;50.328;8.542;2023-07-20T04:55:48;98313.53;;;15.10;79.89
69971;BME280;57301;50.328;8.542;2023-07-20T04:58:19;98313.09;;;15.06;79.73
69971;BME280;57301;50.328;8.542;2023-07-20T05:00:50;98317.16;;;15.17;80.16
69971;BME280;57301;50.328;8.542;2023-07-20T05:03:17;98313.91;;;15.21;79.31
69971;BME280;57301;50.328;8.542;2023-07-20T05:05:44;98315.19;;;15.25;79.99
69971;BME280;57301;50.328;8.542;2023-07-20T05:08:14;98321.22;;;15.27;79.81
69971;BME280;57301;50.328;8.542;2023-07-20T05:10:42;98306.88;;;15.20;80.21
69971;BME280;57301;50.328;8.542;2023-07-20T05:13:08;98304.34;;;15.33;80.22
69971;BME280;57301;50.328;8.542;2023-07-20T05:15:35;98311.47;;;15.41;80.10
69971;BME280;57301;50.328;8.542;2023-07-20T05:18:02;98320.13;;;15.58;79.70
69971;BME280;57301;50.328;8.542;2023-07-20T05:20:28;98312.69;;;15.75;78.39
69971;BME280;57301;50.328;8.542;2023-07-20T05:22:55;98315.50;;;15.88;78.45
69971;BME280;57301;50.328;8.542;2023-07-20T05:25:22;98315.31;;;16.11;77.56
69971;BME280;57301;50.328;8.542;2023-07-20T05:27:49;98319.03;;;15.89;78.44
69971;BME280;57301;50.328;8.542;2023-07-20T05:30:16;98312.06;;;16.16;77.45
69971;BME280;57301;50.328;8.542;2023-07-20T05:32:43;98320.84;;;16.52;75.88
69971;BME280;57301;50.328;8.542;2023-07-20T05:35:11;98323.78;;;17.27;72.84
69971;BME280;57301;50.328;8.542;2023-07-20T05:37:38;98316.47;;;17.62;70.98
69971;BME280;57301;50.328;8.542;2023-07-20T05:40:05;98323.91;;;17.60;70.35
69971;BME280;57301;50.328;8.542;2023-07-20T05:42:34;98327.78;;;17.98;69.62
69971;BME280;57301;50.328;8.542;2023-07-20T05:45:00;98325.72;;;18.34;68.39
69971;BME280;57301;50.328;8.542;2023-07-20T05:47:27;98326.19;;;17.56;70.36
69971;BME280;57301;50.328;8.542;2023-07-20T05:49:53;98326.50;;;17.27;71.69
69971;BME280;57301;50.328;8.542;2023-07-20T05:52:20;98329.94;;;17.14;72.23
69971;BME280;57301;50.328;8.542;2023-07-20T05:54:46;98335.72;;;17.11;72.43
69971;BME280;57301;50.328;8.542;2023-07-20T05:57:13;98329.97;;;17.21;72.17
69971;BME280;57301;50.328;8.542;2023-07-20T05:59:39;98330.41;;;17.24;72.85
69971;BME280;57301;50.328;8.542;2023-07-20T06:02:11;98336.56;;;17.11;72.74
69971;BME280;57301;50.328;8.542;2023-07-20T06:04:39;98332.97;;;17.39;71.70
69971;BME280;57301;50.328;8.542;2023-07-20T06:07:06;98335.69;;;18.20;69.40
69971;BME280;57301;50.328;8.542;2023-07-20T06:09:34;98326.13;;;18.57;67.45
69971;BME280;57301;50.328;8.542;2023-07-20T06:12:01;98344.22;;;19.54;65.50
69971;BME280;57301;50.328;8.542;2023-07-20T06:14:30;98339.94;;;20.48;61.97
69971;BME280;57301;50.328;8.542;2023-07-20T06:16:57;98354.09;;;19.29;64.24
69971;BME280;57301;50.328;8.542;2023-07-20T06:19:26;98351.06;;;18.92;65.12
69971;BME280;57301;50.328;8.542;2023-07-20T06:21:57;98353.34;;;18.82;66.01
69971;BME280;57301;50.328;8.542;2023-07-20T06:24:26;98353.59;;;18.67;66.41
69971;BME280;57301;50.328;8.542;2023-07-20T06:26:53;98356.88;;;18.43;67.97
69971;BME280;57301;50.328;8.542;2023-07-20T06:29:22;98364.56;;;18.46;67.38
69971;BME280;57301;50.328;8.542;2023-07-20T06:31:54;98357.28;;;18.20;68.00
69971;BME280;57301;50.328;8.542;2023-07-20T06:34:23;98360.41;;;18.30;67.60
69971;BME280;57301;50.328;8.542;2023-07-20T06:36:52;98355.63;;;18.32;67.96
69971;BME280;57301;50.328;8.542;2023-07-20T06:39:18;98364.09;;;18.16;68.38
69971;BME280;57301;50.328;8.542;2023-07-20T06:41:51;98372.22;;;18.22;68.09
69971;BME280;57301;50.328;8.542;2023-07-20T06:44:21;98374.91;;;18.29;68.08
69971;BME280;57301;50.328;8.542;2023-07-20T06:46:48;98357.88;;;18.09;67.62
69971;BME280;57301;50.328;8.542;2023-07-20T06:49:25;98367.63;;;18.03;68.28
69971;BME280;57301;50.328;8.542;2023-07-20T06:51:52;98370.91;;;17.92;68.74
69971;BME280;57301;50.328;8.542;2023-07-20T06:54:19;98374.25;;;17.94;69.05
69971;BME280;57301;50.328;8.542;2023-07-20T06:56:49;98375.47;;;17.91;68.97
69971;BME280;57301;50.328;8.542;2023-07-20T06:59:36;98377.59;;;18.09;68.40
69971;BME280;57301;50.328;8.542;2023-07-20T07:02:07;98374.28;;;18.20;67.67
69971;BME280;57301;50.328;8.542;2023-07-20T07:04:40;98371.16;;;18.10;67.68
69971;BME280;57301;50.328;8.542;2023-07-20T07:07:10;98368.44;;;17.97;67.97
69971;BME280;57301;50.328;8.542;2023-07-20T07:09:37;98373.44;;;18.07;67.43
69971;BME280;57301;50.328;8.542;2023-07-20T07:12:04;98380.53;;;18.34;65.85
69971;BME280;57301;50.328;8.542;2023-07-20T07:14:31;98377.41;;;18.11;65.97
69971;BME280;57301;50.328;8.542;2023-07-20T07:16:58;98375.94;;;18.02;65.32
69971;BME280;57301;50.328;8.542;2023-07-20T07:19:34;98379.28;;;18.17;65.57
69971;BME280;57301;50.328;8.542;2023-07-20T07:22:02;98379.09;;;18.18;65.96
69971;BME280;57301;50.328;8.542;2023-07-20T07:24:30;98379.09;;;18.25;65.67
69971;BME280;57301;50.328;8.542;2023-07-20T07:27:00;98384.28;;;18.33;65.43
69971;BME280;57301;50.328;8.542;2023-07-20T07:29:28;98384.69;;;18.17;66.03
69971;BME280;57301;50.328;8.542;2023-07-20T07:31:55;98383.00;;;18.16;65.86
69971;BME280;57301;50.328;8.542;2023-07-20T07:34:21;98383.38;;;17.93;66.31
69971;BME280;57301;50.328;8.542;2023-07-20T07:36:48;98381.78;;;18.12;65.77
69971;BME280;57301;50.328;8.542;2023-07-20T07:39:14;98380.53;;;17.60;66.65
69971;BME280;57301;50.328;8.542;2023-07-20T07:42:00;98394.47;;;17.63;66.47
69971;BME280;57301;50.328;8.542;2023-07-20T07:44:26;98384.88;;;18.29;64.97
69971;BME280;57301;50.328;8.542;2023-07-20T07:46:53;98391.09;;;19.35;63.24
69971;BME280;57301;50.328;8.542;2023-07-20T07:49:20;98384.47;;;19.24;62.08
69971;BME280;57301;50.328;8.542;2023-07-20T07:51:46;98385.44;;;19.43;61.18
69971;BME280;57301;50.328;8.542;2023-07-20T07:54:13;98383.34;;;19.52;61.13
69971;BME280;57301;50.328;8.542;2023-07-20T07:56:39;98383.94;;;19.67;59.98
69971;BME280;57301;50.328;8.542;2023-07-20T07:59:07;98380.47;;;19.40;60.47
69971;BME280;57301;50.328;8.542;2023-07-20T08:01:33;98380.78;;;18.92;61.15
69971;BME280;57301;50.328;8.542;2023-07-20T08:04:00;98385.44;;;19.43;59.92
69971;BME280;57301;50.328;8.542;2023-07-20T08:06:26;98388.25;;;19.10;61.02
69971;BME280;57301;50.328;8.542;2023-07-20T08:08:55;98384.44;;;19.31;61.30
69971;BME280;57301;50.328;8.542;2023-07-20T08:11:24;98391.13;;;19.28;61.49
69971;BME280;57301;50.328;8.542;2023-07-20T08:13:51;98395.28;;;19.18;61.59
69971;BME280;57301;50.328;8.542;2023-07-20T08:16:17;98390.84;;;19.43;61.27
69971;BME280;57301;50.328;8.542;2023-07-20T08:18:44;98403.47;;;19.69;60.44
69971;BME280;57301;50.328;8.542;2023-07-20T08:21:12;98401.19;;;19.73;60.38
69971;BME280;57301;50.328;8.542;2023-07-20T08:23:38;98402.47;;;19.50;60.46
69971;BME280;57301;50.328;8.542;2023-07-20T08:26:05;98403.28;;;19.57;61.27
69971;BME280;57301;50.328;8.542;2023-07-20T08:28:31;98405.00;;;19.58;60.51
69971;BME280;57301;50.328;8.542;2023-07-20T08:30:58;98407.56;;;20.23;58.09
69971;BME280;57301;50.328;8.542;2023-07-20T08:33:25;98404.03;;;20.23;58.50
69971;BME280;57301;50.328;8.542;2023-07-20T08:35:51;98406.50;;;21.12;55.20
69971;BME280;57301;50.328;8.542;2023-07-20T08:38:18;98396.44;;;21.75;53.63
69971;BME280;57301;50.328;8.542;2023-07-20T08:40:45;98399.63;;;22.73;52.18
69971;BME280;57301;50.328;8.542;2023-07-20T08:43:13;98398.63;;;22.44;51.20
69971;BME280;57301;50.328;8.542;2023-07-20T08:45:44;98403.00;;;21.67;52.30
69971;BME280;57301;50.328;8.542;2023-07-20T08:48:11;98408.06;;;21.20;53.48
69971;BME280;57301;50.328;8.542;2023-07-20T08:50:38;98402.41;;;21.03;53.49
69971;BME280;57301;50.328;8.542;2023-07-20T08:53:08;98408.50;;;21.60;53.28
69971;BME280;57301;50.328;8.542;2023-07-20T08:55:36;98390.47;;;22.44;51.11
69971;BME280;57301;50.328;8.542;2023-07-20T08:58:04;98398.38;;;22.99;48.25
69971;BME280;57301;50.328;8.542;2023-07-20T09:00:34;98392.56;;;23.43;47.98
69971;BME280;57301;50.328;8.542;2023-07-20T09:03:02;98393.00;;;22.27;49.88
69971;BME280;57301;50.328;8.542;2023-07-20T09:05:30;98388.41;;;22.28;49.23
69971;BME280;57301;50.328;8.542;2023-07-20T09:07:59;98394.06;;;21.78;50.07
69971;BME280;57301;50.328;8.542;2023-07-20T09:10:26;98398.59;;;22.33;47.93
69971;BME280;57301;50.328;8.542;2023-07-20T09:12:53;98393.78;;;21.86;47.69
69971;BME280;57301;50.328;8.542;2023-07-20T09:15:19;98388.44;;;23.28;45.65
69971;BME280;57301;50.328;8.542;2023-07-20T09:17:47;98386.38;;;23.71;46.26
69971;BME280;57301;50.328;8.542;2023-07-20T09:20:16;98386.03;;;24.24;44.59
69971;BME280;57301;50.328;8.542;2023-07-20T09:22:47;98390.59;;;24.19;43.59
69971;BME280;57301;50.328;8.542;2023-07-20T09:25:22;98380.22;;;24.04;43.85
69971;BME280;57301;50.328;8.542;2023-07-20T09:27:51;98391.47;;;23.44;45.28
69971;BME280;57301;50.328;8.542;2023-07-20T09:30:18;98399.63;;;22.73;46.51
69971;BME280;57301;50.328;8.542;2023-07-20T09:32:47;98401.50;;;22.61;46.36
69971;BME280;57301;50.328;8.542;2023-07-20T09:35:19;98400.28;;;23.22;45.82
69971;BME280;57301;50.328;8.542;2023-07-20T09:37:59;98399.38;;;23.57;44.27
69971;BME280;57301;50.328;8.542;2023-07-20T09:40:29;98397.41;;;23.64;44.59
69971;BME280;57301;50.328;8.542;2023-07-20T09:42:59;98398.91;;;22.66;46.70
69971;BME280;57301;50.328;8.542;2023-07-20T09:45:33;98398.97;;;23.01;45.74
69971;BME280;57301;50.328;8.542;2023-07-20T09:48:09;98398.56;;;24.08;44.87
69971;BME280;57301;50.328;8.542;2023-07-20T09:50:43;98393.38;;;24.07;43.71
69971;BME280;57301;50.328;8.542;2023-07-20T09:53:17;98385.63;;;24.44;43.63
69971;BME280;57301;50.328;8.542;2023-07-20T09:55:47;98381.66;;;24.23;42.96
69971;BME280;57301;50.328;8.542;2023-07-20T09:58:15;98386.28;;;24.51;42.27
69971;BME280;57301;50.328;8.542;2023-07-20T10:00:43;98381.78;;;24.74;42.89
69971;BME280;57301;50.328;8.542;2023-07-20T10:03:20;98381.78;;;24.74;40.99
69971;BME280;57301;50.328;8.542;2023-07-20T10:05:52;98379.59;;;24.30;40.94
69971;BME280;57301;50.328;8.542;2023-07-20T10:08:24;98375.53;;;24.16;40.62
69971;BME280;57301;50.328;8.542;2023-07-20T10:10:54;98364.84;;;25.27;40.70
69971;BME280;57301;50.328;8.542;2023-07-20T10:13:28;98375.84;;;24.31;41.21
69971;BME280;57301;50.328;8.542;2023-07-20T10:16:10;98380.25;;;23.64;42.21
69971;BME280;57301;50.328;8.542;2023-07-20T10:18:50;98386.03;;;23.44;41.65
69971;BME280;57301;50.328;8.542;2023-07-20T10:21:19;98370.59;;;24.30;40.14
69971;BME280;57301;50.328;8.542;2023-07-20T10:23:49;98368.75;;;23.62;41.09
69971;BME280;57301;50.328;8.542;2023-07-20T10:26:16;98370.75;;;24.52;40.30
69971;BME280;57301;50.328;8.542;2023-07-20T10:28:42;98358.22;;;24.22;39.92
69971;BME280;57301;50.328;8.542;2023-07-20T10:31:10;98367.06;;;24.75;39.30
69971;BME280;57301;50.328;8.542;2023-07-20T10:33:38;98356.03;;;25.20;39.25
69971;BME280;57301;50.328;8.542;2023-07-20T10:36:05;98349.94;;;24.62;39.49
69971;BME280;57301;50.328;8.542;2023-07-20T10:41:43;98348.00;;;25.30;38.53
69971;BME280;57301;50.328;8.542;2023-07-20T10:44:08;98342.66;;;25.62;37.93
69971;BME280;57301;50.328;8.542;2023-07-20T10:49:07;98349.69;;;24.64;39.68
69971;BME280;57301;50.328;8.542;2023-07-20T10:51:47;98344.41;;;24.12;38.81
69971;BME280;57301;50.328;8.542;2023-07-20T10:56:47;98339.91;;;25.18;37.12
69971;BME280;57301;50.328;8.542;2023-07-20T10:59:19;98336.44;;;24.89;36.28
69971;BME280;57301;50.328;8.542;2023-07-20T11:01:47;98326.16;;;25.30;36.79
69971;BME280;57301;50.328;8.542;2023-07-20T11:04:16;98332.75;;;25.56;36.89
69971;BME280;57301;50.328;8.542;2023-07-20T11:06:46;98324.31;;;25.36;36.63
69971;BME280;57301;50.328;8.542;2023-07-20T11:09:15;98331.28;;;25.92;36.73
69971;BME280;57301;50.328;8.542;2023-07-20T11:12:28;98329.72;;;24.97;35.93
69971;BME280;57301;50.328;8.542;2023-07-20T11:14:32;98329.53;;;24.03;37.50
69971;BME280;57301;50.328;8.542;2023-07-20T11:17:14;98324.88;;;25.60;36.44
69971;BME280;57301;50.328;8.542;2023-07-20T11:20:12;98319.78;;;25.90;35.63
69971;BME280;57301;50.328;8.542;2023-07-20T11:23:00;98320.88;;;26.16;35.71
69971;BME280;57301;50.328;8.542;2023-07-20T11:25:40;98323.81;;;26.10;34.32
69971;BME280;57301;50.328;8.542;2023-07-20T11:28:21;98321.81;;;26.32;33.32
69971;BME280;57301;50.328;8.542;2023-07-20T11:31:13;98304.41;;;26.75;32.25
69971;BME280;57301;50.328;8.542;2023-07-20T11:33:43;98307.25;;;26.91;33.17
69971;BME280;57301;50.328;8.542;2023-07-20T11:36:31;98313.91;;;26.63;31.62
69971;BME280;57301;50.328;8.542;2023-07-20T11:39:18;98301.75;;;26.48;32.18
69971;BME280;57301;50.328;8.542;2023-07-20T11:41:50;98304.28;;;26.55;32.11
69971;BME280;57301;50.328;8.542;2023-07-20T11:44:31;98301.84;;;27.01;31.41
69971;BME280;57301;50.328;8.542;2023-07-20T11:47:07;98291.97;;;27.00;31.79
69971;BME280;57301;50.328;8.542;2023-07-20T11:52:07;98297.63;;;27.25;32.76
69971;BME280;57301;50.328;8.542;2023-07-20T11:54:35;98304.41;;;27.18;30.23
69971;BME280;57301;50.328;8.542;2023-07-20T11:57:04;98297.63;;;27.25;31.60
69971;BME280;57301;50.328;8.542;2023-07-20T11:59:32;98295.34;;;26.38;32.28
69971;BME280;57301;50.328;8.542;2023-07-20T12:02:02;98286.97;;;26.87;31.89
69971;BME280;57301;50.328;8.542;2023-07-20T12:04:32;98291.34;;;27.30;31.59
69971;BME280;57301;50.328;8.542;2023-07-20T12:06:59;98282.81;;;27.21;31.47
69971;BME280;57301;50.328;8.542;2023-07-20T12:09:26;98285.81;;;27.82;30.03
69971;BME280;57301;50.328;8.542;2023-07-20T12:12:13;98286.53;;;26.63;29.31
69971;BME280;57301;50.328;8.542;2023-07-20T12:14:40;98278.53;;;27.46;30.89
69971;BME280;57301;50.328;8.542;2023-07-20T12:17:08;98281.81;;;27.43;30.86
69971;BME280;57301;50.328;8.542;2023-07-20T12:19:38;98280.56;;;27.71;30.49
69971;BME280;57301;50.328;8.542;2023-07-20T12:22:05;98287.81;;;27.35;29.27
69971;BME280;57301;50.328;8.542;2023-07-20T12:24:32;98280.88;;;27.84;29.27
69971;BME280;57301;50.328;8.542;2023-07-20T12:26:59;98286.63;;;27.98;30.08
69971;BME280;57301;50.328;8.542;2023-07-20T12:29:29;98274.88;;;28.03;30.81
69971;BME280;57301;50.328;8.542;2023-07-20T12:31:58;98273.25;;;28.07;29.01
69971;BME280;57301;50.328;8.542;2023-07-20T12:34:39;98273.53;;;28.41;29.24
69971;BME280;57301;50.328;8.542;2023-07-20T12:37:06;98275.44;;;28.25;29.39
69971;BME280;57301;50.328;8.542;2023-07-20T12:39:35;98266.66;;;28.69;30.21
69971;BME280;57301;50.328;8.542;2023-07-20T12:42:07;98269.34;;;28.89;28.52
69971;BME280;57301;50.328;8.542;2023-07-20T12:44:34;98269.13;;;28.20;29.17
69971;BME280;57301;50.328;8.542;2023-07-20T12:47:00;98265.53;;;27.99;29.26
69971;BME280;57301;50.328;8.542;2023-07-20T12:49:27;98266.88;;;29.03;29.88
69971;BME280;57301;50.328;8.542;2023-07-20T12:51:54;98259.25;;;28.59;28.88
69971;BME280;57301;50.328;8.542;2023-07-20T12:54:22;98256.75;;;28.99;28.87
69971;BME280;57301;50.328;8.542;2023-07-20T12:56:49;98255.22;;;29.37;28.15
69971;BME280;57301;50.328;8.542;2023-07-20T12:59:21;98253.69;;;29.70;27.09
69971;BME280;57301;50.328;8.542;2023-07-20T13:01:48;98250.97;;;27.73;29.23
69971;BME280;57301;50.328;8.542;2023-07-20T13:04:15;98249.25;;;26.94;30.79
69971;BME280;57301;50.328;8.542;2023-07-20T13:06:41;98246.00;;;26.97;30.87
69971;BME280;57301;50.328;8.542;2023-07-20T13:09:08;98242.75;;;30.04;26.79
69971;BME280;57301;50.328;8.542;2023-07-20T13:11:35;98245.25;;;28.71;27.70
69971;BME280;57301;50.328;8.542;2023-07-20T13:14:01;98232.53;;;30.44;27.22
69971;BME280;57301;50.328;8.542;2023-07-20T13:16:28;98235.63;;;31.43;24.36
69971;BME280;57301;50.328;8.542;2023-07-20T13:18:55;98235.84;;;29.08;26.75
69971;BME280;57301;50.328;8.542;2023-07-20T13:21:21;98233.38;;;27.53;28.52
69971;BME280;57301;50.328;8.542;2023-07-20T13:23:51;98235.75;;;26.82;29.68
69971;BME280;57301;50.328;8.542;2023-07-20T13:26:20;98229.44;;;26.34;30.23
69971;BME280;57301;50.328;8.542;2023-07-20T13:28:46;98234.16;;;25.80;31.22